sensor_id;sensor_type;location;lat;lon;timestamp;temperature;humidity
14877;DHT22;69691;48.172;17.070;2023-07-13T00:01:53;21.50;99.70
14877;DHT22;69691;48.172;17.070;2023-07-13T00:04:20;21.40;99.90
14877;DHT22;69691;48.172;17.070;2023-07-13T00:06:48;21.40;99.90
14877;DHT22;69691;48.172;17.070;2023-07-13T00:09:17;21.40;99.90
14877;DHT22;69691;48.172;17.070;2023-07-13T00:11:44;21.40;99.90
14877;DHT22;69691;48.172;17.070;2023-07-13T00:14:13;21.40;99.90
14877;DHT22;69691;48.172;17.070;2023-07-13T00:16:41;21.40;99.90
14877;DHT22;69691;48.172;17.070;2023-07-13T00:19:11;21.30;99.90
14877;DHT22;69691;48.172;17.070;2023-07-13T00:21:41;21.30;99.90
14877;DHT22;69691;48.172;17.070;2023-07-13T00:24:08;21.30;99.90
14877;DHT22;69691;48.172;17.070;2023-07-13T00:26:38;21.30;99.90
14877;DHT22;69691;48.172;17.070;2023-07-13T00:29:05;21.20;99.90
14877;DHT22;69691;48.172;17.070;2023-07-13T00:31:34;21.20;99.90
14877;DHT22;69691;48.172;17.070;2023-07-13T00:34:00;21.20;99.90
14877;DHT22;69691;48.172;17.070;2023-07-13T00:36:26;21.10;99.90
14877;DHT22;69691;48.172;17.070;2023-07-13T00:38:53;21.10;99.90
14877;DHT22;69691;48.172;17.070;2023-07-13T00:41:19;21.00;99.90
14877;DHT22;69691;48.172;17.070;2023-07-13T00:43:45;21.00;99.90
14877;DHT22;69691;48.172;17.070;2023-07-13T00:46:16;20.90;99.90
14877;DHT22;69691;48.172;17.070;2023-07-13T00:48:43;20.90;99.90
14877;DHT22;69691;48.172;17.070;2023-07-13T00:51:10;20.80;99.90
14877;DHT22;69691;48.172;17.070;2023-07-13T00:53:40;20.80;99.90
14877;DHT22;69691;48.172;17.070;2023-07-13T00:56:06;20.80;99.90
14877;DHT22;69691;48.172;17.070;2023-07-13T00:58:33;20.80;99.90
14877;DHT22;69691;48.172;17.070;2023-07-13T01:01:00;20.80;99.90
14877;DHT22;69691;48.172;17.070;2023-07-13T01:03:26;20.80;99.90
14877;DHT22;69691;48.172;17.070;2023-07-13T01:05:53;20.80;99.90
14877;DHT22;69691;48.172;17.070;2023-07-13T01:08:20;20.90;99.90
14877;DHT22;69691;48.172;17.070;2023-07-13T01:10:57;20.90;99.90
14877;DHT22;69691;48.172;17.070;2023-07-13T01:13:24;20.90;99.90
14877;DHT22;69691;48.172;17.070;2023-07-13T01:15:51;20.90;99.90
14877;DHT22;69691;48.172;17.070;2023-07-13T01:18:21;20.90;99.90
14877;DHT22;69691;48.172;17.070;2023-07-13T01:20:54;20.90;99.90
14877;DHT22;69691;48.172;17.070;2023-07-13T01:23:21;20.90;99.90
14877;DHT22;69691;48.172;17.070;2023-07-13T01:25:48;20.80;99.90
14877;DHT22;69691;48.172;17.070;2023-07-13T01:28:14;20.80;99.90
14877;DHT22;69691;48.172;17.070;2023-07-13T01:30:42;20.80;99.90
14877;DHT22;69691;48.172;17.070;2023-07-13T01:33:15;20.70;99.90
14877;DHT22;69691;48.172;17.070;2023-07-13T01:35:42;20.70;99.90
14877;DHT22;69691;48.172;17.070;2023-07-13T01:38:09;20.70;99.90
14877;DHT22;69691;48.172;17.070;2023-07-13T01:40:37;20.70;99.90
14877;DHT22;69691;48.172;17.070;2023-07-13T01:43:04;20.80;99.90
14877;DHT22;69691;48.172;17.070;2023-07-13T01:45:30;20.80;99.90
14877;DHT22;69691;48.172;17.070;2023-07-13T01:47:56;20.80;99.90
14877;DHT22;69691;48.172;17.070;2023-07-13T01:50:24;20.90;99.90
14877;DHT22;69691;48.172;17.070;2023-07-13T01:52:51;20.90;99.90
14877;DHT22;69691;48.172;17.070;2023-07-13T01:55:17;21.00;99.90
14877;DHT22;69691;48.172;17.070;2023-07-13T01:57:43;21.00;99.90
14877;DHT22;69691;48.172;17.070;2023-07-13T02:00:10;21.10;99.90
14877;DHT22;69691;48.172;17.070;2023-07-13T02:02:42;21.10;99.90
14877;DHT22;69691;48.172;17.070;2023-07-13T02:05:10;21.10;99.90
14877;DHT22;69691;48.172;17.070;2023-07-13T02:07:37;21.20;99.90
14877;DHT22;69691;48.172;17.070;2023-07-13T02:10:04;21.30;99.90
14877;DHT22;69691;48.172;17.070;2023-07-13T02:12:31;21.30;99.90
14877;DHT22;69691;48.172;17.070;2023-07-13T02:14:57;21.30;99.90
14877;DHT22;69691;48.172;17.070;2023-07-13T02:17:23;21.40;99.90
14877;DHT22;69691;48.172;17.070;2023-07-13T02:19:49;21.50;99.90
14877;DHT22;69691;48.172;17.070;2023-07-13T02:22:15;21.50;99.90
14877;DHT22;69691;48.172;17.070;2023-07-13T02:24:40;21.50;99.90
14877;DHT22;69691;48.172;17.070;2023-07-13T02:27:06;21.60;99.90
14877;DHT22;69691;48.172;17.070;2023-07-13T02:29:32;21.60;99.90
14877;DHT22;69691;48.172;17.070;2023-07-13T02:31:58;21.60;99.90
14877;DHT22;69691;48.172;17.070;2023-07-13T02:34:24;21.60;99.90
14877;DHT22;69691;48.172;17.070;2023-07-13T02:36:50;21.60;99.90
14877;DHT22;69691;48.172;17.070;2023-07-13T02:39:16;21.60;99.90
14877;DHT22;69691;48.172;17.070;2023-07-13T02:41:41;21.50;99.90
14877;DHT22;69691;48.172;17.070;2023-07-13T02:44:07;21.50;99.90
14877;DHT22;69691;48.172;17.070;2023-07-13T02:46:35;21.60;99.90
14877;DHT22;69691;48.172;17.070;2023-07-13T02:49:02;21.60;99.90
14877;DHT22;69691;48.172;17.070;2023-07-13T02:51:29;21.60;99.90
14877;DHT22;69691;48.172;17.070;2023-07-13T02:53:56;21.70;99.90
14877;DHT22;69691;48.172;17.070;2023-07-13T02:56:23;21.70;99.90
14877;DHT22;69691;48.172;17.070;2023-07-13T02:58:51;21.70;99.90
14877;DHT22;69691;48.172;17.070;2023-07-13T03:01:17;21.70;99.90
14877;DHT22;69691;48.172;17.070;2023-07-13T03:03:45;21.70;99.90
14877;DHT22;69691;48.172;17.070;2023-07-13T03:06:13;21.70;99.90
14877;DHT22;69691;48.172;17.070;2023-07-13T03:08:47;21.80;99.90
14877;DHT22;69691;48.172;17.070;2023-07-13T03:11:17;21.80;99.90
14877;DHT22;69691;48.172;17.070;2023-07-13T03:13:47;21.90;99.90
14877;DHT22;69691;48.172;17.070;2023-07-13T03:16:15;21.90;99.90
14877;DHT22;69691;48.172;17.070;2023-07-13T03:18:43;22.00;99.90
14877;DHT22;69691;48.172;17.070;2023-07-13T03:21:11;22.00;99.90
14877;DHT22;69691;48.172;17.070;2023-07-13T03:23:38;22.00;99.90
14877;DHT22;69691;48.172;17.070;2023-07-13T03:26:07;22.10;99.70
14877;DHT22;69691;48.172;17.070;2023-07-13T03:28:40;22.10;99.90
14877;DHT22;69691;48.172;17.070;2023-07-13T03:31:12;22.20;99.90
14877;DHT22;69691;48.172;17.070;2023-07-13T03:33:42;22.20;99.90
14877;DHT22;69691;48.172;17.070;2023-07-13T03:36:14;22.20;99.90
14877;DHT22;69691;48.172;17.070;2023-07-13T03:38:56;22.20;99.90
14877;DHT22;69691;48.172;17.070;2023-07-13T03:41:30;22.30;99.90
14877;DHT22;69691;48.172;17.070;2023-07-13T03:43:57;22.20;99.90
14877;DHT22;69691;48.172;17.070;2023-07-13T03:46:25;22.20;99.90
14877;DHT22;69691;48.172;17.070;2023-07-13T03:48:51;22.20;99.90
14877;DHT22;69691;48.172;17.070;2023-07-13T03:51:17;22.20;99.90
14877;DHT22;69691;48.172;17.070;2023-07-13T03:53:45;22.20;99.90
14877;DHT22;69691;48.172;17.070;2023-07-13T03:56:14;22.20;99.90
14877;DHT22;69691;48.172;17.070;2023-07-13T03:58:42;22.20;99.90
14877;DHT22;69691;48.172;17.070;2023-07-13T04:01:16;22.20;99.90
14877;DHT22;69691;48.172;17.070;2023-07-13T04:03:44;22.10;99.90
14877;DHT22;69691;48.172;17.070;2023-07-13T04:06:20;22.10;99.90
14877;DHT22;69691;48.172;17.070;2023-07-13T04:08:52;22.10;99.90
14877;DHT22;69691;48.172;17.070;2023-07-13T04:11:21;22.10;99.90
14877;DHT22;69691;48.172;17.070;2023-07-13T04:13:48;22.10;99.90
14877;DHT22;69691;48.172;17.070;2023-07-13T04:16:15;22.10;99.90
14877;DHT22;69691;48.172;17.070;2023-07-13T04:18:41;22.00;99.90
14877;DHT22;69691;48.172;17.070;2023-07-13T04:21:08;22.00;99.90
14877;DHT22;69691;48.172;17.070;2023-07-13T04:23:37;22.00;99.90
14877;DHT22;69691;48.172;17.070;2023-07-13T04:26:04;21.90;99.90
14877;DHT22;69691;48.172;17.070;2023-07-13T04:28:30;21.90;99.90
14877;DHT22;69691;48.172;17.070;2023-07-13T04:30:56;21.90;99.90
14877;DHT22;69691;48.172;17.070;2023-07-13T04:33:23;21.90;99.90
14877;DHT22;69691;48.172;17.070;2023-07-13T04:35:53;21.80;99.90
14877;DHT22;69691;48.172;17.070;2023-07-13T04:38:24;21.80;99.90
14877;DHT22;69691;48.172;17.070;2023-07-13T04:40:55;21.80;99.90
14877;DHT22;69691;48.172;17.070;2023-07-13T04:43:22;21.80;99.90
14877;DHT22;69691;48.172;17.070;2023-07-13T04:45:49;21.80;99.90
14877;DHT22;69691;48.172;17.070;2023-07-13T04:48:22;21.80;99.90
14877;DHT22;69691;48.172;17.070;2023-07-13T04:50:54;21.70;99.90
14877;DHT22;69691;48.172;17.070;2023-07-13T04:53:22;21.60;99.90
14877;DHT22;69691;48.172;17.070;2023-07-13T04:55:48;21.60;99.90
14877;DHT22;69691;48.172;17.070;2023-07-13T04:58:14;21.70;99.90
14877;DHT22;69691;48.172;17.070;2023-07-13T05:00:40;21.70;99.90
14877;DHT22;69691;48.172;17.070;2023-07-13T05:03:06;21.80;99.90
14877;DHT22;69691;48.172;17.070;2023-07-13T05:05:32;21.80;99.90
14877;DHT22;69691;48.172;17.070;2023-07-13T05:07:58;21.90;99.90
14877;DHT22;69691;48.172;17.070;2023-07-13T05:10:24;21.90;99.90
14877;DHT22;69691;48.172;17.070;2023-07-13T05:12:50;22.00;99.90
14877;DHT22;69691;48.172;17.070;2023-07-13T05:15:16;22.00;99.90
14877;DHT22;69691;48.172;17.070;2023-07-13T05:17:47;22.00;99.90
14877;DHT22;69691;48.172;17.070;2023-07-13T05:20:13;21.90;99.90
14877;DHT22;69691;48.172;17.070;2023-07-13T05:22:39;22.00;99.90
14877;DHT22;69691;48.172;17.070;2023-07-13T05:25:06;22.10;99.90
14877;DHT22;69691;48.172;17.070;2023-07-13T05:27:34;22.10;99.90
14877;DHT22;69691;48.172;17.070;2023-07-13T05:30:02;22.20;99.90
14877;DHT22;69691;48.172;17.070;2023-07-13T05:32:29;22.30;99.90
14877;DHT22;69691;48.172;17.070;2023-07-13T05:34:54;22.40;99.90
14877;DHT22;69691;48.172;17.070;2023-07-13T05:37:20;22.60;99.90
14877;DHT22;69691;48.172;17.070;2023-07-13T05:39:46;22.80;99.90
14877;DHT22;69691;48.172;17.070;2023-07-13T05:42:12;23.00;99.40
14877;DHT22;69691;48.172;17.070;2023-07-13T05:44:38;23.20;99.20
14877;DHT22;69691;48.172;17.070;2023-07-13T05:47:04;23.30;98.40
14877;DHT22;69691;48.172;17.070;2023-07-13T05:49:30;23.50;97.40
14877;DHT22;69691;48.172;17.070;2023-07-13T05:51:56;23.60;97.10
14877;DHT22;69691;48.172;17.070;2023-07-13T05:54:23;23.70;96.60
14877;DHT22;69691;48.172;17.070;2023-07-13T05:56:48;23.80;96.90
14877;DHT22;69691;48.172;17.070;2023-07-13T05:59:14;23.90;95.70
14877;DHT22;69691;48.172;17.070;2023-07-13T06:01:41;24.10;95.50
14877;DHT22;69691;48.172;17.070;2023-07-13T06:04:07;24.30;95.90
14877;DHT22;69691;48.172;17.070;2023-07-13T06:06:33;24.50;94.90
14877;DHT22;69691;48.172;17.070;2023-07-13T06:08:58;24.60;94.60
14877;DHT22;69691;48.172;17.070;2023-07-13T06:11:26;24.70;94.40
14877;DHT22;69691;48.172;17.070;2023-07-13T06:13:53;24.90;93.60
14877;DHT22;69691;48.172;17.070;2023-07-13T06:16:19;25.10;93.40
14877;DHT22;69691;48.172;17.070;2023-07-13T06:18:46;25.20;92.70
14877;DHT22;69691;48.172;17.070;2023-07-13T06:21:17;25.30;92.40
14877;DHT22;69691;48.172;17.070;2023-07-13T06:23:45;25.20;92.30
14877;DHT22;69691;48.172;17.070;2023-07-13T06:26:13;25.20;92.70
14877;DHT22;69691;48.172;17.070;2023-07-13T06:28:39;25.20;93.10
14877;DHT22;69691;48.172;17.070;2023-07-13T06:31:10;25.10;93.40
14877;DHT22;69691;48.172;17.070;2023-07-13T06:33:37;25.20;93.60
14877;DHT22;69691;48.172;17.070;2023-07-13T06:36:04;25.10;93.10
14877;DHT22;69691;48.172;17.070;2023-07-13T06:38:32;25.00;93.40
14877;DHT22;69691;48.172;17.070;2023-07-13T06:40:58;24.80;93.20
14877;DHT22;69691;48.172;17.070;2023-07-13T06:43:24;24.70;93.50
14877;DHT22;69691;48.172;17.070;2023-07-13T06:45:55;24.50;93.40
14877;DHT22;69691;48.172;17.070;2023-07-13T06:48:21;24.40;93.20
14877;DHT22;69691;48.172;17.070;2023-07-13T06:50:48;24.30;93.70
14877;DHT22;69691;48.172;17.070;2023-07-13T06:53:15;24.30;93.90
14877;DHT22;69691;48.172;17.070;2023-07-13T06:55:43;24.30;94.80
14877;DHT22;69691;48.172;17.070;2023-07-13T06:58:10;24.20;94.20
14877;DHT22;69691;48.172;17.070;2023-07-13T07:00:36;24.20;94.10
14877;DHT22;69691;48.172;17.070;2023-07-13T07:03:02;24.10;94.50
14877;DHT22;69691;48.172;17.070;2023-07-13T07:05:28;24.00;94.60
14877;DHT22;69691;48.172;17.070;2023-07-13T07:07:55;24.00;95.80
14877;DHT22;69691;48.172;17.070;2023-07-13T07:10:21;23.90;96.00
14877;DHT22;69691;48.172;17.070;2023-07-13T07:12:48;23.90;96.40
14877;DHT22;69691;48.172;17.070;2023-07-13T07:15:14;23.90;96.80
14877;DHT22;69691;48.172;17.070;2023-07-13T07:17:40;24.00;97.00
14877;DHT22;69691;48.172;17.070;2023-07-13T07:20:06;24.10;97.00
14877;DHT22;69691;48.172;17.070;2023-07-13T07:22:33;24.30;97.10
14877;DHT22;69691;48.172;17.070;2023-07-13T07:24:59;24.50;96.70
14877;DHT22;69691;48.172;17.070;2023-07-13T07:27:25;24.70;96.60
14877;DHT22;69691;48.172;17.070;2023-07-13T07:29:51;24.90;95.80
14877;DHT22;69691;48.172;17.070;2023-07-13T07:32:18;25.30;95.10
14877;DHT22;69691;48.172;17.070;2023-07-13T07:34:44;25.70;94.50
14877;DHT22;69691;48.172;17.070;2023-07-13T07:37:12;26.00;92.80
14877;DHT22;69691;48.172;17.070;2023-07-13T07:39:39;26.40;92.50
14877;DHT22;69691;48.172;17.070;2023-07-13T07:42:06;26.90;91.50
14877;DHT22;69691;48.172;17.070;2023-07-13T07:44:32;27.40;90.20
14877;DHT22;69691;48.172;17.070;2023-07-13T07:46:58;27.70;85.50
14877;DHT22;69691;48.172;17.070;2023-07-13T07:49:24;28.00;82.30
14877;DHT22;69691;48.172;17.070;2023-07-13T07:51:50;28.30;81.80
14877;DHT22;69691;48.172;17.070;2023-07-13T07:54:16;28.50;78.00
14877;DHT22;69691;48.172;17.070;2023-07-13T07:56:42;28.60;75.70
14877;DHT22;69691;48.172;17.070;2023-07-13T07:59:08;28.60;75.00
14877;DHT22;69691;48.172;17.070;2023-07-13T08:01:35;28.90;74.70
14877;DHT22;69691;48.172;17.070;2023-07-13T08:04:01;29.50;72.50
14877;DHT22;69691;48.172;17.070;2023-07-13T08:06:28;30.10;71.30
14877;DHT22;69691;48.172;17.070;2023-07-13T08:08:54;30.50;66.40
14877;DHT22;69691;48.172;17.070;2023-07-13T08:11:21;30.80;63.80
14877;DHT22;69691;48.172;17.070;2023-07-13T08:13:47;31.00;62.80
14877;DHT22;69691;48.172;17.070;2023-07-13T08:16:15;31.30;61.50
14877;DHT22;69691;48.172;17.070;2023-07-13T08:18:41;31.30;59.00
14877;DHT22;69691;48.172;17.070;2023-07-13T08:21:07;31.20;59.40
14877;DHT22;69691;48.172;17.070;2023-07-13T08:23:35;30.90;59.20
14877;DHT22;69691;48.172;17.070;2023-07-13T08:26:02;30.50;59.60
14877;DHT22;69691;48.172;17.070;2023-07-13T08:28:28;30.30;59.40
14877;DHT22;69691;48.172;17.070;2023-07-13T08:30:54;30.10;60.40
14877;DHT22;69691;48.172;17.070;2023-07-13T08:33:21;30.00;61.40
14877;DHT22;69691;48.172;17.070;2023-07-13T08:35:50;30.00;61.70
14877;DHT22;69691;48.172;17.070;2023-07-13T08:38:17;30.10;61.60
14877;DHT22;69691;48.172;17.070;2023-07-13T08:40:43;30.20;60.60
14877;DHT22;69691;48.172;17.070;2023-07-13T08:43:25;30.20;60.60
14877;DHT22;69691;48.172;17.070;2023-07-13T08:48:56;30.10;61.40
14877;DHT22;69691;48.172;17.070;2023-07-13T08:54:32;29.90;60.10
14877;DHT22;69691;48.172;17.070;2023-07-13T08:57:09;29.60;60.90
14877;DHT22;69691;48.172;17.070;2023-07-13T08:59:37;29.30;61.00
14877;DHT22;69691;48.172;17.070;2023-07-13T09:05:20;28.90;62.20
14877;DHT22;69691;48.172;17.070;2023-07-13T09:10:48;29.00;61.00
14877;DHT22;69691;48.172;17.070;2023-07-13T09:15:54;28.80;58.30
14877;DHT22;69691;48.172;17.070;2023-07-13T09:18:35;28.70;58.80
14877;DHT22;69691;48.172;17.070;2023-07-13T09:21:15;28.60;59.00
14877;DHT22;69691;48.172;17.070;2023-07-13T09:23:43;28.50;59.90
14877;DHT22;69691;48.172;17.070;2023-07-13T09:26:19;28.60;60.60
14877;DHT22;69691;48.172;17.070;2023-07-13T09:28:57;28.80;60.70
14877;DHT22;69691;48.172;17.070;2023-07-13T09:34:04;29.00;60.70
14877;DHT22;69691;48.172;17.070;2023-07-13T09:36:36;29.00;59.80
14877;DHT22;69691;48.172;17.070;2023-07-13T09:44:39;29.10;58.90
14877;DHT22;69691;48.172;17.070;2023-07-13T09:47:22;29.10;58.80
14877;DHT22;69691;48.172;17.070;2023-07-13T09:49:57;29.00;58.90
14877;DHT22;69691;48.172;17.070;2023-07-13T09:52:26;29.10;59.40
14877;DHT22;69691;48.172;17.070;2023-07-13T09:54:55;29.20;59.10
14877;DHT22;69691;48.172;17.070;2023-07-13T09:57:26;29.40;57.60
14877;DHT22;69691;48.172;17.070;2023-07-13T09:59:55;29.50;57.10
14877;DHT22;69691;48.172;17.070;2023-07-13T10:02:34;29.50;56.40
14877;DHT22;69691;48.172;17.070;2023-07-13T10:05:06;29.60;55.90
14877;DHT22;69691;48.172;17.070;2023-07-13T10:07:42;29.60;55.20
14877;DHT22;69691;48.172;17.070;2023-07-13T10:10:21;29.80;55.20
14877;DHT22;69691;48.172;17.070;2023-07-13T10:12:49;30.10;54.60
14877;DHT22;69691;48.172;17.070;2023-07-13T10:15:19;30.40;54.30
14877;DHT22;69691;48.172;17.070;2023-07-13T10:17:48;30.50;54.00
14877;DHT22;69691;48.172;17.070;2023-07-13T10:20:16;30.60;53.60
14877;DHT22;69691;48.172;17.070;2023-07-13T10:22:44;30.50;53.10
14877;DHT22;69691;48.172;17.070;2023-07-13T10:25:25;30.60;52.70
14877;DHT22;69691;48.172;17.070;2023-07-13T10:28:19;30.90;52.50
14877;DHT22;69691;48.172;17.070;2023-07-13T10:30:52;31.00;51.90
14877;DHT22;69691;48.172;17.070;2023-07-13T10:33:20;31.10;51.70
14877;DHT22;69691;48.172;17.070;2023-07-13T10:35:48;31.30;51.50
14877;DHT22;69691;48.172;17.070;2023-07-13T10:38:22;31.20;51.40
14877;DHT22;69691;48.172;17.070;2023-07-13T10:41:10;31.30;51.40
14877;DHT22;69691;48.172;17.070;2023-07-13T10:43:47;31.80;50.70
14877;DHT22;69691;48.172;17.070;2023-07-13T10:46:19;32.10;50.10
14877;DHT22;69691;48.172;17.070;2023-07-13T10:48:49;32.20;49.30
14877;DHT22;69691;48.172;17.070;2023-07-13T10:51:18;32.40;49.10
14877;DHT22;69691;48.172;17.070;2023-07-13T10:53:47;32.60;48.90
14877;DHT22;69691;48.172;17.070;2023-07-13T10:56:24;32.60;47.70
14877;DHT22;69691;48.172;17.070;2023-07-13T10:59:13;32.50;47.40
14877;DHT22;69691;48.172;17.070;2023-07-13T11:04:44;32.00;48.50
14877;DHT22;69691;48.172;17.070;2023-07-13T11:07:22;31.90;48.60
14877;DHT22;69691;48.172;17.070;2023-07-13T11:09:56;31.90;48.60
14877;DHT22;69691;48.172;17.070;2023-07-13T11:12:50;31.90;48.40
14877;DHT22;69691;48.172;17.070;2023-07-13T11:15:31;31.80;48.90
14877;DHT22;69691;48.172;17.070;2023-07-13T11:18:04;31.80;48.90
14877;DHT22;69691;48.172;17.070;2023-07-13T11:20:36;31.80;48.50
14877;DHT22;69691;48.172;17.070;2023-07-13T11:25:37;32.10;47.80
14877;DHT22;69691;48.172;17.070;2023-07-13T11:33:20;32.20;47.90
14877;DHT22;69691;48.172;17.070;2023-07-13T11:38:43;32.10;47.70
14877;DHT22;69691;48.172;17.070;2023-07-13T11:41:17;31.90;47.90
14877;DHT22;69691;48.172;17.070;2023-07-13T11:44:01;31.70;47.50
14877;DHT22;69691;48.172;17.070;2023-07-13T11:46:31;31.40;47.80
14877;DHT22;69691;48.172;17.070;2023-07-13T11:48:57;31.20;48.30
14877;DHT22;69691;48.172;17.070;2023-07-13T11:51:29;31.10;48.60
14877;DHT22;69691;48.172;17.070;2023-07-13T11:54:01;31.30;48.50
14877;DHT22;69691;48.172;17.070;2023-07-13T11:56:30;31.40;48.00
14877;DHT22;69691;48.172;17.070;2023-07-13T11:59:03;31.50;48.00
14877;DHT22;69691;48.172;17.070;2023-07-13T12:01:32;31.60;48.50
14877;DHT22;69691;48.172;17.070;2023-07-13T12:04:02;31.70;48.30
14877;DHT22;69691;48.172;17.070;2023-07-13T12:06:32;31.70;47.80
14877;DHT22;69691;48.172;17.070;2023-07-13T12:09:14;31.70;47.80
14877;DHT22;69691;48.172;17.070;2023-07-13T12:11:43;31.70;46.00
14877;DHT22;69691;48.172;17.070;2023-07-13T12:14:16;31.60;45.30
14877;DHT22;69691;48.172;17.070;2023-07-13T12:16:44;31.60;45.70
14877;DHT22;69691;48.172;17.070;2023-07-13T12:19:22;31.50;45.40
14877;DHT22;69691;48.172;17.070;2023-07-13T12:21:52;31.50;45.10
14877;DHT22;69691;48.172;17.070;2023-07-13T12:24:21;31.40;45.50
14877;DHT22;69691;48.172;17.070;2023-07-13T12:27:13;31.40;44.70
14877;DHT22;69691;48.172;17.070;2023-07-13T12:30:01;31.50;43.80
14877;DHT22;69691;48.172;17.070;2023-07-13T12:32:31;31.30;44.00
14877;DHT22;69691;48.172;17.070;2023-07-13T12:35:15;31.10;45.00
14877;DHT22;69691;48.172;17.070;2023-07-13T12:37:43;31.30;44.50
14877;DHT22;69691;48.172;17.070;2023-07-13T12:40:17;31.60;45.20
14877;DHT22;69691;48.172;17.070;2023-07-13T12:42:51;31.80;44.00
14877;DHT22;69691;48.172;17.070;2023-07-13T12:45:24;31.90;44.50
14877;DHT22;69691;48.172;17.070;2023-07-13T12:48:20;32.10;44.70
14877;DHT22;69691;48.172;17.070;2023-07-13T12:50:48;32.10;44.40
14877;DHT22;69691;48.172;17.070;2023-07-13T12:53:23;32.10;44.80
14877;DHT22;69691;48.172;17.070;2023-07-13T12:55:58;32.20;43.40
14877;DHT22;69691;48.172;17.070;2023-07-13T12:58:29;32.30;43.00
14877;DHT22;69691;48.172;17.070;2023-07-13T13:01:01;32.30;42.80
14877;DHT22;69691;48.172;17.070;2023-07-13T13:03:31;32.10;43.10
14877;DHT22;69691;48.172;17.070;2023-07-13T13:06:23;32.00;43.30
14877;DHT22;69691;48.172;17.070;2023-07-13T13:08:53;31.80;43.00
14877;DHT22;69691;48.172;17.070;2023-07-13T13:11:22;31.60;43.40
14877;DHT22;69691;48.172;17.070;2023-07-13T13:13:49;31.60;43.80
14877;DHT22;69691;48.172;17.070;2023-07-13T13:16:28;31.50;43.10
14877;DHT22;69691;48.172;17.070;2023-07-13T13:18:59;31.40;43.60
14877;DHT22;69691;48.172;17.070;2023-07-13T13:21:31;31.40;42.50
14877;DHT22;69691;48.172;17.070;2023-07-13T13:23:58;31.40;42.90
14877;DHT22;69691;48.172;17.070;2023-07-13T13:26:24;31.40;42.20
14877;DHT22;69691;48.172;17.070;2023-07-13T13:28:51;31.40;42.10
14877;DHT22;69691;48.172;17.070;2023-07-13T13:31:17;31.40;42.70
14877;DHT22;69691;48.172;17.070;2023-07-13T13:33:44;31.60;42.90
14877;DHT22;69691;48.172;17.070;2023-07-13T13:36:22;31.70;42.90
14877;DHT22;69691;48.172;17.070;2023-07-13T13:38:50;31.90;42.30
14877;DHT22;69691;48.172;17.070;2023-07-13T13:41:16;32.10;42.40
14877;DHT22;69691;48.172;17.070;2023-07-13T13:43:43;32.30;42.50
14877;DHT22;69691;48.172;17.070;2023-07-13T13:46:19;32.50;42.70
14877;DHT22;69691;48.172;17.070;2023-07-13T13:48:48;32.60;42.30
14877;DHT22;69691;48.172;17.070;2023-07-13T13:51:20;32.70;42.20
14877;DHT22;69691;48.172;17.070;2023-07-13T13:53:47;32.80;42.20
14877;DHT22;69691;48.172;17.070;2023-07-13T13:56:14;32.90;42.30
14877;DHT22;69691;48.172;17.070;2023-07-13T13:58:41;32.90;41.90
14877;DHT22;69691;48.172;17.070;2023-07-13T14:01:17;32.80;42.90
14877;DHT22;69691;48.172;17.070;2023-07-13T14:03:45;33.00;42.20
14877;DHT22;69691;48.172;17.070;2023-07-13T14:06:15;33.00;42.20
14877;DHT22;69691;48.172;17.070;2023-07-13T14:08:42;33.10;41.80
14877;DHT22;69691;48.172;17.070;2023-07-13T14:11:13;33.30;41.70
14877;DHT22;69691;48.172;17.070;2023-07-13T14:13:44;33.20;41.20
14877;DHT22;69691;48.172;17.070;2023-07-13T14:16:17;33.10;41.30
14877;DHT22;69691;48.172;17.070;2023-07-13T14:18:45;33.10;41.40
14877;DHT22;69691;48.172;17.070;2023-07-13T14:21:17;33.10;41.40
14877;DHT22;69691;48.172;17.070;2023-07-13T14:23:45;33.10;42.00
14877;DHT22;69691;48.172;17.070;2023-07-13T14:26:14;33.20;41.90
14877;DHT22;69691;48.172;17.070;2023-07-13T14:28:49;33.30;42.00
14877;DHT22;69691;48.172;17.070;2023-07-13T14:31:17;33.20;42.10
14877;DHT22;69691;48.172;17.070;2023-07-13T14:33:43;33.10;42.40
14877;DHT22;69691;48.172;17.070;2023-07-13T14:36:40;33.00;41.90
14877;DHT22;69691;48.172;17.070;2023-07-13T14:39:25;32.90;42.80
14877;DHT22;69691;48.172;17.070;2023-07-13T14:41:54;32.60;42.90
14877;DHT22;69691;48.172;17.070;2023-07-13T14:44:26;32.30;43.60
14877;DHT22;69691;48.172;17.070;2023-07-13T14:46:55;32.00;43.70
14877;DHT22;69691;48.172;17.070;2023-07-13T14:49:29;31.70;43.90
14877;DHT22;69691;48.172;17.070;2023-07-13T14:52:01;31.50;44.40
14877;DHT22;69691;48.172;17.070;2023-07-13T14:54:30;31.20;45.00
14877;DHT22;69691;48.172;17.070;2023-07-13T14:56:56;31.00;45.80
14877;DHT22;69691;48.172;17.070;2023-07-13T14:59:22;30.80;45.80
14877;DHT22;69691;48.172;17.070;2023-07-13T15:01:50;30.60;46.00
14877;DHT22;69691;48.172;17.070;2023-07-13T15:04:16;30.40;46.40
14877;DHT22;69691;48.172;17.070;2023-07-13T15:06:58;30.30;46.50
14877;DHT22;69691;48.172;17.070;2023-07-13T15:09:27;30.10;48.00
14877;DHT22;69691;48.172;17.070;2023-07-13T15:11:55;29.90;47.80
14877;DHT22;69691;48.172;17.070;2023-07-13T15:14:22;29.80;47.70
14877;DHT22;69691;48.172;17.070;2023-07-13T15:16:51;29.60;48.00
14877;DHT22;69691;48.172;17.070;2023-07-13T15:19:19;29.40;48.40
14877;DHT22;69691;48.172;17.070;2023-07-13T15:21:47;29.30;49.00
14877;DHT22;69691;48.172;17.070;2023-07-13T15:24:14;29.20;49.20
14877;DHT22;69691;48.172;17.070;2023-07-13T15:26:41;29.00;49.50
14877;DHT22;69691;48.172;17.070;2023-07-13T15:29:11;28.90;50.00
14877;DHT22;69691;48.172;17.070;2023-07-13T15:31:38;28.70;50.60
14877;DHT22;69691;48.172;17.070;2023-07-13T15:34:11;28.60;50.50
14877;DHT22;69691;48.172;17.070;2023-07-13T15:36:42;28.60;50.90
14877;DHT22;69691;48.172;17.070;2023-07-13T15:39:14;28.50;51.60
14877;DHT22;69691;48.172;17.070;2023-07-13T15:41:44;28.50;51.30
14877;DHT22;69691;48.172;17.070;2023-07-13T15:44:23;28.50;51.40
14877;DHT22;69691;48.172;17.070;2023-07-13T15:46:51;28.50;51.60
14877;DHT22;69691;48.172;17.070;2023-07-13T15:49:17;28.40;51.70
14877;DHT22;69691;48.172;17.070;2023-07-13T15:51:43;28.40;51.80
14877;DHT22;69691;48.172;17.070;2023-07-13T15:54:13;28.40;52.20
14877;DHT22;69691;48.172;17.070;2023-07-13T15:56:40;28.30;52.60
14877;DHT22;69691;48.172;17.070;2023-07-13T15:59:10;28.30;52.90
14877;DHT22;69691;48.172;17.070;2023-07-13T16:01:38;28.30;52.70
14877;DHT22;69691;48.172;17.070;2023-07-13T16:04:06;28.30;52.50
14877;DHT22;69691;48.172;17.070;2023-07-13T16:06:37;28.30;52.60